Station History

Weather Underground - logo

Station Historical Data
Daily Summary for February 27, 2018 Units:  Metric    English   Both
« Previous Day
Next Day »
Daily Weekly Monthly Yearly Custom
  High: Low: Average:
Temperature: 10.3 °C 2 °C 6.2 °C
Dew Point: 5.7 °C 1.1 °C 4.2 °C
Humidity: 94 % 70 % 87 %
Wind Speed: 11.1 km/h 0 km/h 1 km/h
Wind Gust: 11.1 km/h - -
Wind:- - SW
Pressure: 1021.6 hPa 1012.8 hPa -
Precipitation: 11.94 mm    
Historical Graphs
 
 
Tabular Data for February 27, 2018
Time Temperature Dew Point Pressure Wind Wind Speed Wind Gust Humidity Rainfall Rate (Hourly)
00:04 6.4 °C 5.5 °C 1012.8 hPa ESE 1.9 km/h   94 % 1.27 mm
00:09 6.3 °C 5.4 °C 1013.1 hPa Calm     94 % 1.02 mm
00:14 6.3 °C 5.4 °C 1013.1 hPa ESE 1.6 km/h 1.6 km/h 94 % 1.27 mm
00:19 6.3 °C 5.4 °C 1013.1 hPa Calm     94 % 1.27 mm
00:24 6.2 °C 5.3 °C 1013.1 hPa ESE 3.2 km/h 3.2 km/h 94 % 1.02 mm
00:29 6.2 °C 5.3 °C 1013.1 hPa ESE 1.9 km/h 1.9 km/h 94 % 1.27 mm
00:34 6.1 °C 5.2 °C 1013.1 hPa ESE 1.9 km/h 1.9 km/h 94 % 1.27 mm
00:39 6.1 °C 5.2 °C 1013.1 hPa ESE 3.7 km/h 3.7 km/h 94 % 1.27 mm
00:44 5.9 °C 5.1 °C 1013.1 hPa ESE 1.6 km/h 1.6 km/h 94 % 1.27 mm
00:49 5.9 °C 5 °C 1013.1 hPa ESE 1.9 km/h 1.9 km/h 94 % 1.52 mm
00:54 5.9 °C 5 °C 1013.1 hPa ESE 5.6 km/h 5.6 km/h 94 % 1.27 mm
00:59 5.8 °C 4.9 °C 1013.1 hPa ESE 3.7 km/h 3.7 km/h 94 % 1.27 mm
01:04 5.8 °C 4.9 °C 1013.1 hPa ESE 1.9 km/h 1.9 km/h 94 % 1.52 mm
01:09 5.8 °C 4.9 °C 1013.1 hPa ESE 1.9 km/h   94 % 1.52 mm
01:14 5.7 °C 4.8 °C 1013.1 hPa Calm   0.3 km/h 94 % 1.27 mm
01:19 5.7 °C 4.8 °C 1013.1 hPa Calm   0.6 km/h 94 % 1.27 mm
01:24 5.6 °C 4.7 °C 1013.1 hPa ESE 1.9 km/h 1.9 km/h 94 % 1.27 mm
01:29 5.6 °C 4.7 °C 1013.1 hPa ESE 1.9 km/h 1.9 km/h 94 % 1.02 mm
01:34 5.6 °C 4.7 °C 1013.1 hPa ESE 1.9 km/h   94 % 1.27 mm
01:39 5.6 °C 4.7 °C 1013.1 hPa ESE 1.9 km/h 1.9 km/h 94 % 1.27 mm
01:45 5.5 °C 4.6 °C 1013.1 hPa ESE 1.9 km/h 1.9 km/h 94 % 1.27 mm
01:50 5.5 °C 4.6 °C 1013.1 hPa ESE 1.9 km/h 1.9 km/h 94 % 1.27 mm
01:55 5.4 °C 4.6 °C 1013.1 hPa ESE 1.9 km/h   94 % 1.52 mm
02:00 5.5 °C 4.6 °C 1013.1 hPa ESE 1.9 km/h 1.9 km/h 94 % 1.52 mm
02:05 5.4 °C 4.6 °C 1013.1 hPa Calm     94 % 1.52 mm
02:10 5.4 °C 4.5 °C 1013.1 hPa ESE 1.9 km/h   94 % 1.52 mm
02:15 5.4 °C 4.5 °C 1013.1 hPa Calm     94 % 1.78 mm
02:20 5.4 °C 4.5 °C 1013.1 hPa ESE 1.9 km/h   94 % 1.52 mm
02:25 5.3 °C 4.4 °C 1013.1 hPa ESE 5.6 km/h 5.6 km/h 94 % 1.78 mm
02:30 5.3 °C 4.4 °C 1013.1 hPa ESE 1.9 km/h 1.9 km/h 94 % 1.78 mm
02:35 5.3 °C 4.4 °C 1013.1 hPa ESE 1.9 km/h 1.9 km/h 94 % 1.78 mm
02:40 5.2 °C 4.3 °C 1013.1 hPa ESE 1.9 km/h 1.9 km/h 94 % 1.52 mm
02:45 5.2 °C 4.3 °C 1013.1 hPa Calm     94 % 1.78 mm
02:50 5.2 °C 4.3 °C 1012.8 hPa Calm     94 % 1.78 mm
02:55 5.1 °C 4.2 °C 1012.8 hPa ESE 1.9 km/h   94 % 1.52 mm
03:00 5.1 °C 4.2 °C 1012.8 hPa ESE 1.9 km/h   94 % 1.78 mm
03:05 5.1 °C 4.2 °C 1012.8 hPa Calm     94 % 1.78 mm
03:10 5.1 °C 4.2 °C 1012.8 hPa Calm     94 % 2.03 mm
03:15 5 °C 4.1 °C 1012.8 hPa Calm     94 % 2.03 mm
03:20 4.9 °C 4.1 °C 1012.8 hPa Calm     94 % 2.03 mm
03:25 4.9 °C 4.1 °C 1012.8 hPa Calm     94 % 2.03 mm
03:30 4.9 °C 4.1 °C 1012.8 hPa ESE 1.9 km/h   94 % 1.78 mm
03:35 4.9 °C 4.1 °C 1012.8 hPa ESE 1.9 km/h 1.9 km/h 94 % 1.78 mm
03:40 4.9 °C 4 °C 1012.8 hPa Calm     94 % 2.03 mm
03:45 4.9 °C 4 °C 1012.8 hPa Calm     94 % 1.78 mm
03:50 4.9 °C 4 °C 1012.8 hPa Calm     94 % 1.52 mm
03:55 4.9 °C 4 °C 1012.8 hPa Calm     94 % 1.52 mm
04:01 4.9 °C 4.1 °C 1012.8 hPa Calm     94 % 1.27 mm
04:06 4.9 °C 4.1 °C 1012.8 hPa Calm     94 % 1.02 mm
04:11 4.9 °C 4 °C 1012.8 hPa Calm     94 % 1.02 mm
04:16 4.8 °C 3.9 °C 1013.1 hPa Calm     94 % 0.76 mm
04:21 4.8 °C 3.9 °C 1013.1 hPa Calm     94 % 0.76 mm
04:26 4.9 °C 4 °C 1013.1 hPa Calm     94 % 0.76 mm
04:31 4.9 °C 4 °C 1012.8 hPa Calm     94 % 0.76 mm
04:36 4.9 °C 4.1 °C 1012.8 hPa Calm     94 % 1.02 mm
04:41 4.8 °C 3.9 °C 1013.1 hPa Calm     94 % 0.76 mm
04:46 4.9 °C 4 °C 1013.1 hPa Calm     94 % 1.02 mm
04:51 4.9 °C 4.1 °C 1013.1 hPa Calm     94 % 1.02 mm
04:56 4.9 °C 4.1 °C 1013.1 hPa Calm     94 % 1.27 mm
05:01 4.9 °C 4.1 °C 1013.1 hPa Calm     94 % 1.27 mm
05:06 4.9 °C 4.1 °C 1013.4 hPa Calm     94 % 1.52 mm
05:11 4.9 °C 4.1 °C 1013.4 hPa Calm     94 % 1.52 mm
05:16 4.9 °C 4.1 °C 1013.4 hPa Calm     94 % 1.52 mm
05:21 4.9 °C 4.1 °C 1013.1 hPa ESE 1.9 km/h   94 % 1.78 mm
05:26 4.9 °C 4 °C 1013.1 hPa ESE 1.9 km/h 1.9 km/h 94 % 1.78 mm
05:31 4.9 °C 4 °C 1013.4 hPa Calm     94 % 1.78 mm
05:36 4.9 °C 4 °C 1013.4 hPa Calm     94 % 1.78 mm
05:41 4.9 °C 4 °C 1013.4 hPa Calm     94 % 1.78 mm
05:46 4.8 °C 3.9 °C 1013.4 hPa Calm     94 % 1.78 mm
05:51 4.8 °C 3.9 °C 1013.8 hPa Calm     94 % 2.03 mm
05:56 4.8 °C 3.9 °C 1013.4 hPa Calm     94 % 2.03 mm
06:01 4.7 °C 3.8 °C 1013.4 hPa Calm     94 % 2.03 mm
06:06 4.7 °C 3.8 °C 1013.8 hPa Calm     94 % 2.03 mm
06:11 4.7 °C 3.6 °C 1013.8 hPa Calm     93 % 1.78 mm
06:16 4.7 °C 3.8 °C 1013.8 hPa Calm     94 % 2.03 mm
06:21 4.6 °C 3.6 °C 1013.8 hPa ESE 1.9 km/h   93 % 1.78 mm
06:26 4.6 °C 3.6 °C 1013.8 hPa ESE 1.9 km/h   93 % 1.78 mm
06:31 4.6 °C 3.5 °C 1013.8 hPa Calm     93 % 1.78 mm
06:36 4.6 °C 3.5 °C 1013.8 hPa Calm     93 % 1.78 mm
06:41 4.6 °C 3.5 °C 1013.8 hPa Calm     93 % 2.03 mm
06:46 4.6 °C 3.7 °C 1013.8 hPa Calm     94 % 2.03 mm
06:51 4.5 °C 3.6 °C 1014.1 hPa Calm     94 % 1.78 mm
06:56 4.5 °C 3.6 °C 1014.1 hPa Calm     94 % 1.52 mm
07:01 4.5 °C 3.6 °C 1014.4 hPa Calm     94 % 1.78 mm
07:06 4.5 °C 3.6 °C 1014.4 hPa Calm     94 % 1.52 mm
07:11 4.5 °C 3.6 °C 1014.8 hPa Calm     94 % 1.78 mm
07:16 4.4 °C 3.6 °C 1014.8 hPa ESE 1.6 km/h   94 % 1.52 mm
07:21 4.5 °C 3.6 °C 1014.8 hPa Calm     94 % 1.52 mm
07:26 4.5 °C 3.6 °C 1014.8 hPa Calm     94 % 1.27 mm
07:31 4.6 °C 3.7 °C 1014.8 hPa Calm     94 % 1.27 mm
07:36 4.6 °C 3.7 °C 1014.8 hPa Calm     94 % 1.02 mm
07:41 4.6 °C 3.7 °C 1015.1 hPa Calm     94 % 0.76 mm
07:46 4.7 °C 3.8 °C 1015.1 hPa Calm     94 % 0.51 mm
07:51 4.7 °C 3.8 °C 1015.1 hPa Calm     94 % 0.51 mm
07:56 4.7 °C 3.8 °C 1015.1 hPa Calm     94 % 0.51 mm
08:01 4.8 °C 3.9 °C 1015.1 hPa Calm     94 % 0.25 mm
08:02 4.8 °C 3.9 °C 1015.1 hPa Calm     94 % 0.25 mm
08:07 4.8 °C 3.9 °C 1015.5 hPa Calm     94 % 0.51 mm
08:12 4.8 °C 3.9 °C 1015.5 hPa Calm     94 % 0.25 mm
08:17 4.8 °C 3.9 °C 1015.5 hPa Calm     94 % 0.25 mm
08:22 4.9 °C 4 °C 1015.5 hPa Calm     94 % 0.25 mm
08:27 4.9 °C 4.1 °C 1015.8 hPa Calm     94 % 0.25 mm
08:32 5 °C 4.1 °C 1015.8 hPa Calm     94 % 0.51 mm
08:37 5 °C 4.1 °C 1015.8 hPa Calm     94 % 0.51 mm
08:38 5.1 °C 4.2 °C 1015.8 hPa Calm     94 % 0.51 mm
08:43 5.1 °C 4 °C 1015.8 hPa Calm     93 % 0.51 mm
08:48 5.1 °C 4 °C 1015.8 hPa Calm     93 % 0.51 mm
08:53 5.1 °C 4.1 °C 1016.1 hPa Calm     93 % 0.51 mm
08:58 5.2 °C 4.1 °C 1016.1 hPa Calm     93 % 0.51 mm
09:03 5.2 °C 4.1 °C 1016.5 hPa Calm     93 % 0.51 mm
09:08 5.2 °C 4.2 °C 1016.5 hPa Calm     93 % 0.25 mm
09:13 5.2 °C 4.2 °C 1016.5 hPa Calm     93 % 0.25 mm
09:18 5.3 °C 4.2 °C 1016.5 hPa Calm     93 % 0.25 mm
09:23 5.4 °C 4.4 °C 1016.8 hPa Calm     93 % 0.25 mm
09:28 5.5 °C 4.3 °C 1016.8 hPa Calm     92 % 0.25 mm
09:33 5.6 °C 4.3 °C 1016.8 hPa Calm     92 % 0 mm
09:38 5.8 °C 4.6 °C 1017.2 hPa Calm     92 % 0 mm
09:43 6.1 °C 4.9 °C 1017.2 hPa Calm     92 % 0 mm
09:48 6.3 °C 5.1 °C 1017.2 hPa Calm     92 % 0 mm
09:53 6.4 °C 5.1 °C 1017.5 hPa ESE 1.9 km/h   91 % 0 mm
09:58 6.8 °C 5.4 °C 1017.5 hPa Calm     91 % 0 mm
10:03 6.7 °C 5 °C 1017.5 hPa ESE 1.9 km/h 1.9 km/h 89 % 0 mm
10:08 6.7 °C 5.2 °C 1017.5 hPa ESE 1.9 km/h 1.9 km/h 90 % 0.25 mm
10:13 6.8 °C 5 °C 1017.5 hPa NNW 1.9 km/h 1.9 km/h 88 % 0.25 mm
10:18 6.9 °C 5.1 °C 1017.8 hPa WNW 3.7 km/h 3.7 km/h 88 % 0.25 mm
10:23 7 °C 5 °C 1017.8 hPa WNW 5.6 km/h 5.6 km/h 87 % 0.25 mm
10:33 7.2 °C 5.2 °C 1017.8 hPa Calm     87 % 0.25 mm
10:38 7.3 °C 5.3 °C 1017.8 hPa West 1.9 km/h 1.9 km/h 87 % 0.25 mm
10:43 7.4 °C 5.4 °C 1018.2 hPa Calm     87 % 0.25 mm
10:48 7.5 °C 5.2 °C 1018.2 hPa West 1.9 km/h 1.9 km/h 85 % 0.25 mm
10:53 7.4 °C 4.8 °C 1018.2 hPa NNW 1.9 km/h 1.9 km/h 84 % 0.25 mm
10:58 7.4 °C 5.3 °C 1018.5 hPa Calm     86 % 0.25 mm
11:03 7.6 °C 5.4 °C 1018.5 hPa Calm     86 % 0.25 mm
11:08 7.6 °C 5.2 °C 1018.5 hPa SSE 1.6 km/h 1.6 km/h 85 % 0 mm
11:13 7.6 °C 5.2 °C 1018.5 hPa Calm     85 % 0 mm
11:18 7.6 °C 5 °C 1018.5 hPa Calm   0.2 km/h 84 % 0 mm
11:23 7.6 °C 5.1 °C 1018.5 hPa SSE 1.9 km/h   84 % 0 mm
11:28 7.6 °C 4.7 °C 1018.5 hPa West 3.7 km/h 3.7 km/h 82 % 0 mm
11:33 7.5 °C 4.9 °C 1018.2 hPa NW 1.9 km/h 1.9 km/h 84 % 0 mm
11:38 7.6 °C 4.8 °C 1018.2 hPa Calm     83 % 0 mm
11:43 7.7 °C 4.9 °C 1018.2 hPa NW 3.7 km/h 3.7 km/h 83 % 0 mm
11:48 7.6 °C 4.5 °C 1018.2 hPa Calm     81 % 0 mm
11:53 7.6 °C 4.7 °C 1018.2 hPa Calm     82 % 0 mm
11:58 7.7 °C 4.9 °C 1018.2 hPa WNW 1.9 km/h 1.9 km/h 83 % 0 mm
12:03 7.8 °C 5.1 °C 1018.2 hPa NW 3.7 km/h 3.7 km/h 83 % 0 mm
12:08 7.9 °C 5.2 °C 1018.2 hPa Calm     83 % 0 mm
12:13 8.2 °C 5.3 °C 1018.2 hPa NW 1.9 km/h   82 % 0 mm
12:18 8.2 °C 5.1 °C 1018.2 hPa WNW 1.9 km/h 1.9 km/h 81 % 0 mm
12:23 8.1 °C 5.1 °C 1018.2 hPa NW 1.6 km/h 1.6 km/h 81 % 0 mm
12:28 8.1 °C 5.1 °C 1018.2 hPa Calm     81 % 0 mm
12:33 8.1 °C 4.6 °C 1018.2 hPa Calm   0.2 km/h 79 % 0 mm
12:38 8.1 °C 4.6 °C 1018.2 hPa NNW 1.9 km/h   79 % 0 mm
12:43 8.3 °C 5.1 °C 1018.2 hPa NW 3.7 km/h 3.7 km/h 80 % 0 mm
12:48 8.5 °C 4.7 °C 1018.2 hPa WNW 1.9 km/h   77 % 0 mm
12:53 8.6 °C 5.2 °C 1018.2 hPa NNW 3.7 km/h 3.7 km/h 79 % 0 mm
12:58 8.7 °C 5.1 °C 1018.2 hPa Calm     78 % 0 mm
13:03 8.8 °C 5.4 °C 1018.2 hPa Calm     79 % 0 mm
13:09 8.9 °C 5.1 °C 1018.2 hPa Calm     77 % 0 mm
13:14 8.8 °C 5 °C 1018.2 hPa WNW 1.9 km/h 1.9 km/h 77 % 0 mm
13:19 8.8 °C 5 °C 1018.2 hPa NW 1.9 km/h   77 % 0 mm
13:24 8.9 °C 4.9 °C 1018.2 hPa NW 5.6 km/h 5.6 km/h 76 % 0 mm
13:29 8.9 °C 4.9 °C 1018.2 hPa West 1.6 km/h 1.6 km/h 76 % 0 mm
13:34 9.2 °C 5.2 °C 1018.2 hPa NNW 1.9 km/h 1.9 km/h 76 % 0 mm
13:39 9.4 °C 5.2 °C 1018.2 hPa WNW 1.9 km/h 1.9 km/h 75 % 0 mm
13:44 9.5 °C 5.1 °C 1018.2 hPa North 3.7 km/h 3.7 km/h 74 % 0 mm
13:49 9.5 °C 4.9 °C 1018.2 hPa Calm     73 % 0 mm
13:54 9.4 °C 4.7 °C 1018.2 hPa Calm     72 % 0 mm
13:59 9.4 °C 4.8 °C 1018.2 hPa Calm     73 % 0 mm
14:04 9.4 °C 5 °C 1018.2 hPa NW 3.7 km/h 3.7 km/h 74 % 0 mm
14:09 9.4 °C 5 °C 1018.2 hPa WNW 1.9 km/h 1.9 km/h 74 % 0 mm
14:14 9.4 °C 5 °C 1018.2 hPa NW 3.7 km/h 3.7 km/h 74 % 0 mm
14:19 9.3 °C 4.9 °C 1018.2 hPa Calm     74 % 0 mm
14:24 9.3 °C 4.9 °C 1018.2 hPa WNW 1.9 km/h 1.9 km/h 74 % 0 mm
14:29 9.4 °C 5 °C 1018.2 hPa North 3.7 km/h 3.7 km/h 74 % 0 mm
14:34 9.4 °C 5.2 °C 1018.2 hPa NW 1.9 km/h 1.9 km/h 75 % 0 mm
14:39 9.4 °C 4.8 °C 1018.2 hPa NW 5.6 km/h 5.6 km/h 73 % 0 mm
14:44 9.4 °C 5.1 °C 1018.2 hPa Calm     74 % 0 mm
14:49 9.5 °C 4.9 °C 1018.2 hPa WNW 1.9 km/h   73 % 0 mm
14:54 9.8 °C 5.4 °C 1018.2 hPa SW 1.9 km/h 1.9 km/h 74 % 0 mm
14:59 10.2 °C 5.3 °C 1018.2 hPa NW 5.6 km/h 5.6 km/h 72 % 0 mm
15:04 10.2 °C 5.2 °C 1018.2 hPa NW 6.4 km/h 6.4 km/h 71 % 0 mm
15:09 10.3 °C 5.7 °C 1018.2 hPa NW 11.1 km/h 11.1 km/h 73 % 0 mm
15:14 10.1 °C 5.2 °C 1018.2 hPa NW 5.6 km/h 5.6 km/h 72 % 0 mm
15:19 9.9 °C 5.3 °C 1018.5 hPa West 3.7 km/h 3.7 km/h 73 % 0 mm
15:24 9.8 °C 5.2 °C 1018.5 hPa WNW 5.6 km/h 5.6 km/h 73 % 0 mm
15:29 9.8 °C 5.2 °C 1018.5 hPa Calm     73 % 0 mm
15:34 9.9 °C 5.3 °C 1018.5 hPa NW 3.7 km/h   73 % 0 mm
15:39 9.9 °C 5.1 °C 1018.5 hPa NNW 1.9 km/h   72 % 0 mm
15:44 9.8 °C 4.9 °C 1018.5 hPa NW 3.7 km/h 3.7 km/h 72 % 0 mm
15:49 9.8 °C 4.9 °C 1018.5 hPa Calm     72 % 0 mm
15:54 9.8 °C 4.6 °C 1018.5 hPa NW 1.9 km/h 1.9 km/h 70 % 0 mm
15:59 9.7 °C 4.7 °C 1018.5 hPa West 1.9 km/h 1.9 km/h 71 % 0 mm
16:04 9.8 °C 4.8 °C 1018.5 hPa NW 3.2 km/h 3.2 km/h 71 % 0 mm
16:09 9.8 °C 4.8 °C 1018.5 hPa Calm     71 % 0 mm
16:14 9.8 °C 4.9 °C 1018.8 hPa NW 3.7 km/h 3.7 km/h 72 % 0 mm
16:19 9.8 °C 4.8 °C 1018.8 hPa WNW 3.7 km/h 3.7 km/h 71 % 0 mm
16:24 9.8 °C 4.6 °C 1018.8 hPa NNW 3.7 km/h   70 % 0 mm
16:29 9.9 °C 5.1 °C 1018.8 hPa NW 3.7 km/h 3.7 km/h 72 % 0 mm
16:34 9.8 °C 4.6 °C 1018.8 hPa NW 1.9 km/h   70 % 0 mm
16:39 9.6 °C 4.6 °C 1018.8 hPa Calm     71 % 0 mm
16:44 9.6 °C 4.8 °C 1018.8 hPa Calm     72 % 0 mm
16:49 9.6 °C 4.6 °C 1018.8 hPa Calm     71 % 0 mm
16:54 9.4 °C 4.6 °C 1019.2 hPa West 1.9 km/h   72 % 0 mm
16:59 9.3 °C 4.6 °C 1019.2 hPa NW 3.7 km/h   72 % 0 mm
17:04 9.2 °C 4.6 °C 1019.2 hPa Calm     73 % 0 mm
17:09 9.2 °C 4.6 °C 1019.2 hPa NW 1.9 km/h 1.9 km/h 73 % 0 mm
17:14 9.1 °C 4.4 °C 1019.2 hPa Calm     73 % 0 mm
17:19 9.1 °C 4.4 °C 1019.2 hPa Calm     73 % 0 mm
17:25 9 °C 4.6 °C 1019.5 hPa Calm     74 % 0 mm
17:30 8.9 °C 4.6 °C 1019.5 hPa Calm     74 % 0 mm
17:35 8.9 °C 4.6 °C 1019.5 hPa Calm     74 % 0 mm
17:40 8.9 °C 4.6 °C 1019.5 hPa Calm     74 % 0 mm
17:45 8.9 °C 4.5 °C 1019.5 hPa Calm     74 % 0 mm
17:50 8.7 °C 4.2 °C 1019.5 hPa Calm     73 % 0 mm
17:55 8.7 °C 4.1 °C 1019.5 hPa Calm     73 % 0 mm
18:00 8.4 °C 4.1 °C 1019.5 hPa Calm     74 % 0 mm
18:05 8.3 °C 4.5 °C 1019.5 hPa Calm     77 % 0 mm
18:10 8.1 °C 4.4 °C 1019.5 hPa Calm     78 % 0 mm
18:15 7.8 °C 4.4 °C 1019.5 hPa Calm     79 % 0 mm
18:20 7.6 °C 4.4 °C 1019.5 hPa Calm     80 % 0 mm
18:25 7.4 °C 4.2 °C 1019.5 hPa Calm     80 % 0 mm
18:30 7.3 °C 4.4 °C 1019.5 hPa Calm     82 % 0 mm
18:35 7.2 °C 4.3 °C 1019.5 hPa Calm     82 % 0 mm
18:40 7.1 °C 4.6 °C 1019.9 hPa Calm     84 % 0 mm
18:45 7.1 °C 4.7 °C 1019.9 hPa Calm     85 % 0 mm
18:50 7 °C 4.8 °C 1019.9 hPa Calm     86 % 0 mm
18:55 6.9 °C 4.9 °C 1019.9 hPa Calm     87 % 0 mm
19:00 6.9 °C 4.9 °C 1019.9 hPa Calm     87 % 0 mm
19:05 6.9 °C 5.1 °C 1019.9 hPa Calm     88 % 0 mm
19:10 6.8 °C 4.9 °C 1019.9 hPa Calm     88 % 0 mm
19:15 6.6 °C 4.7 °C 1019.9 hPa Calm     88 % 0 mm
19:20 6.3 °C 4.5 °C 1019.9 hPa Calm     88 % 0 mm
19:25 6.1 °C 4.3 °C 1019.9 hPa Calm     88 % 0 mm
19:30 5.9 °C 4.3 °C 1019.9 hPa Calm     89 % 0 mm
19:35 6 °C 4.3 °C 1019.9 hPa Calm     89 % 0 mm
19:40 6.2 °C 4.3 °C 1019.9 hPa Calm     88 % 0 mm
19:45 6.2 °C 4.2 °C 1019.9 hPa Calm     87 % 0 mm
19:50 6.1 °C 3.9 °C 1020.2 hPa Calm     86 % 0 mm
19:55 5.8 °C 3.6 °C 1020.2 hPa Calm     86 % 0 mm
20:00 5.6 °C 3.6 °C 1020.2 hPa Calm     87 % 0 mm
20:05 5.6 °C 3.7 °C 1020.2 hPa Calm     88 % 0 mm
20:10 5.4 °C 3.4 °C 1020.2 hPa Calm     87 % 0 mm
20:15 5.2 °C 3.2 °C 1020.5 hPa Calm     87 % 0 mm
20:20 5 °C 3.3 °C 1020.5 hPa Calm     89 % 0 mm
20:25 4.9 °C 3.2 °C 1020.5 hPa Calm     89 % 0 mm
20:30 4.8 °C 3.3 °C 1020.5 hPa Calm     90 % 0 mm
20:35 4.8 °C 3.3 °C 1020.5 hPa Calm     90 % 0 mm
20:40 4.7 °C 3.2 °C 1020.9 hPa Calm     90 % 0 mm
20:45 4.7 °C 3.3 °C 1020.9 hPa Calm     91 % 0 mm
20:50 4.6 °C 3.3 °C 1020.9 hPa Calm     91 % 0 mm
20:55 4.6 °C 3.2 °C 1021.2 hPa Calm     91 % 0 mm
21:00 4.5 °C 3.2 °C 1021.2 hPa Calm     91 % 0 mm
21:05 4.4 °C 3.1 °C 1021.2 hPa Calm     91 % 0 mm
21:10 4.3 °C 3 °C 1021.2 hPa Calm     91 % 0 mm
21:15 4.3 °C 2.9 °C 1021.2 hPa Calm     91 % 0 mm
21:20 4.1 °C 2.8 °C 1021.2 hPa Calm     91 % 0 mm
21:25 4.1 °C 2.9 °C 1021.2 hPa Calm     92 % 0 mm
21:30 4 °C 2.8 °C 1021.2 hPa Calm     92 % 0 mm
21:35 3.9 °C 2.7 °C 1021.2 hPa Calm     92 % 0 mm
21:40 3.8 °C 2.6 °C 1021.2 hPa Calm     92 % 0 mm
21:45 3.7 °C 2.6 °C 1021.2 hPa Calm     92 % 0 mm
21:50 3.7 °C 2.7 °C 1021.2 hPa Calm     93 % 0 mm
21:55 3.8 °C 2.7 °C 1021.2 hPa Calm     93 % 0 mm
22:00 3.8 °C 2.8 °C 1021.2 hPa Calm     93 % 0 mm
22:05 3.8 °C 2.8 °C 1021.2 hPa Calm     93 % 0 mm
22:10 3.6 °C 2.6 °C 1021.2 hPa Calm     93 % 0 mm
22:15 3.4 °C 2.2 °C 1021.2 hPa Calm     92 % 0 mm
22:20 3.2 °C 2.1 °C 1021.6 hPa Calm     92 % 0 mm
22:25 3.1 °C 1.9 °C 1021.6 hPa Calm     92 % 0 mm
22:30 3.1 °C 2.1 °C 1021.6 hPa Calm     93 % 0 mm
22:35 3.1 °C 2.1 °C 1021.6 hPa Calm     93 % 0 mm
22:40 2.9 °C 1.9 °C 1021.6 hPa Calm     93 % 0 mm
22:45 2.7 °C 1.7 °C 1021.2 hPa Calm     93 % 0 mm
22:50 2.7 °C 1.7 °C 1021.2 hPa Calm     93 % 0 mm
22:55 2.6 °C 1.6 °C 1021.2 hPa Calm     93 % 0 mm
23:00 2.4 °C 1.4 °C 1021.2 hPa Calm     93 % 0 mm
23:05 2.3 °C 1.3 °C 1021.2 hPa Calm     93 % 0 mm
23:10 2.3 °C 1.3 °C 1021.2 hPa Calm     93 % 0 mm
23:15 2.2 °C 1.2 °C 1021.2 hPa Calm     93 % 0 mm
23:21 2.1 °C 1.1 °C 1021.2 hPa Calm     93 % 0 mm
23:26 2.1 °C 1.1 °C 1021.6 hPa Calm     93 % 0 mm
23:31 2.1 °C 1.2 °C 1021.6 hPa Calm     94 % 0 mm
23:36 2.1 °C 1.2 °C 1021.6 hPa Calm     94 % 0 mm
23:41 2 °C 1.1 °C 1021.6 hPa Calm     94 % 0 mm
23:46 2.1 °C 1.2 °C 1021.6 hPa Calm     94 % 0 mm
23:51 2.2 °C 1.3 °C 1021.6 hPa Calm     94 % 0 mm
23:56 2.2 °C 1.3 °C 1021.6 hPa Calm     94 % 0 mm
Park Place, Exeter, Tulare County, California, USA
Compliments of Weather Underground - 2.75 mb